Wetterdaten: Woche 23.03.15 - 29.03.15 (KW13)
Datum Zeit Temp. A. Feuchte A. Luftdruck Regen Wind Richtung Taupunkt Windchill Windben
23.03.2015 00:00 1,0 C 72 % 1022,8 hPa 0,0 l/m 1,9 km/h N -3,4 C 1,0 C 7,2 km/h
23.03.2015 01:00 0,6 C 74 % 1022,4 hPa 0,0 l/m 0,7 km/h N -3,6 C 0,6 C 4,0 km/h
23.03.2015 02:00 -0,4 C 77 % 1021,8 hPa 0,0 l/m 0,2 km/h N -4,0 C -0,4 C 3,6 km/h
23.03.2015 03:00 -0,8 C 77 % 1021,7 hPa 0,0 l/m 0,5 km/h N -4,2 C -0,8 C 3,6 km/h
23.03.2015 04:00 -1,2 C 78 % 1021,6 hPa 0,0 l/m 0,1 km/h N -4,6 C -1,2 C 2,0 km/h
23.03.2015 05:00 -2,3 C 80 % 1021,4 hPa 0,0 l/m 0,0 km/h N -5,4 C -2,3 C 0,0 km/h
23.03.2015 06:00 -2,5 C 82 % 1021,5 hPa 0,0 l/m 0,4 km/h N -5,1 C -2,5 C 2,4 km/h
23.03.2015 07:00 -0,3 C 80 % 1021,4 hPa 0,0 l/m 1,3 km/h N -3,4 C -0,3 C 4,8 km/h
23.03.2015 08:00 2,0 C 70 % 1021,2 hPa 0,0 l/m 3,6 km/h N -2,9 C 2,0 C 10,5 km/h
23.03.2015 09:00 3,8 C 63 % 1020,9 hPa 0,0 l/m 2,6 km/h N -2,6 C 3,8 C 9,7 km/h
23.03.2015 10:00 5,8 C 56 % 1020,6 hPa 0,0 l/m 1,6 km/h N -2,3 C 5,8 C 8,1 km/h
23.03.2015 11:00 7,4 C 53 % 1020,1 hPa 0,0 l/m 1,5 km/h N -1,6 C 7,4 C 6,8 km/h
23.03.2015 12:00 8,6 C 52 % 1019,1 hPa 0,0 l/m 1,8 km/h N -0,8 C 8,6 C 7,6 km/h
23.03.2015 13:00 10,3 C 53 % 1018,0 hPa 0,0 l/m 1,4 km/h N 1,0 C 10,3 C 8,4 km/h
23.03.2015 14:00 10,7 C 52 % 1017,3 hPa 0,0 l/m 2,0 km/h N 1,1 C 10,7 C 10,5 km/h
23.03.2015 15:00 11,2 C 51 % 1016,6 hPa 0,0 l/m 0,8 km/h N 1,4 C 11,2 C 7,6 km/h
23.03.2015 16:00 11,0 C 53 % 1015,8 hPa 0,0 l/m 0,8 km/h N 1,6 C 11,0 C 6,8 km/h
23.03.2015 17:00 10,5 C 56 % 1015,3 hPa 0,0 l/m 0,4 km/h N 2,0 C 10,5 C 4,4 km/h
23.03.2015 18:00 8,8 C 59 % 1014,9 hPa 0,0 l/m 0,0 km/h N 1,1 C 8,8 C 0,0 km/h
23.03.2015 19:00 6,4 C 67 % 1014,7 hPa 0,0 l/m 0,0 km/h N 0,7 C 6,4 C 0,8 km/h
23.03.2015 20:00 5,4 C 72 % 1014,7 hPa 0,0 l/m 0,0 km/h N 0,8 C 5,4 C 0,4 km/h
23.03.2015 21:00 4,3 C 75 % 1014,5 hPa 0,0 l/m 0,0 km/h N 0,3 C 4,3 C 2,0 km/h
23.03.2015 22:00 4,7 C 77 % 1014,0 hPa 0,0 l/m 0,3 km/h N 1,1 C 4,7 C 3,6 km/h
23.03.2015 23:00 5,6 C 73 % 1013,4 hPa 0,0 l/m 0,7 km/h N 1,1 C 5,6 C 5,2 km/h
24.03.2015 00:00 5,4 C 73 % 1012,8 hPa 0,0 l/m 0,8 km/h N 0,9 C 5,4 C 5,2 km/h
24.03.2015 01:00 5,8 C 71 % 1012,4 hPa 0,0 l/m 1,4 km/h N 1,0 C 5,8 C 7,6 km/h
24.03.2015 02:00 6,2 C 70 % 1011,9 hPa 0,0 l/m 2,4 km/h N 1,0 C 6,2 C 10,1 km/h
24.03.2015 03:00 6,3 C 69 % 1011,5 hPa 0,0 l/m 1,7 km/h N 0,9 C 6,3 C 9,3 km/h
24.03.2015 04:00 5,6 C 70 % 1011,4 hPa 0,0 l/m 0,3 km/h N 0,6 C 5,6 C 4,0 km/h
24.03.2015 05:00 4,7 C 73 % 1011,4 hPa 0,0 l/m 0,3 km/h N 0,4 C 4,7 C 4,8 km/h
24.03.2015 06:00 4,3 C 75 % 1011,5 hPa 0,0 l/m 0,0 km/h N 0,2 C 4,3 C 0,4 km/h
24.03.2015 07:00 4,9 C 77 % 1011,8 hPa 0,0 l/m 0,4 km/h N 1,3 C 4,9 C 2,8 km/h
24.03.2015 08:00 8,3 C 69 % 1011,7 hPa 0,0 l/m 1,3 km/h N 3,0 C 8,3 C 6,4 km/h
24.03.2015 09:00 11,5 C 60 % 1011,5 hPa 0,0 l/m 2,7 km/h N 3,9 C 11,5 C 9,3 km/h
24.03.2015 10:00 14,1 C 53 % 1011,1 hPa 0,0 l/m 3,6 km/h N 4,6 C 14,1 C 12,9 km/h
24.03.2015 11:00 15,1 C 51 % 1010,5 hPa 0,0 l/m 4,8 km/h N 4,9 C 15,1 C 18,9 km/h
24.03.2015 12:00 16,2 C 48 % 1010,0 hPa 0,0 l/m 5,4 km/h N 5,1 C 16,2 C 16,9 km/h
24.03.2015 13:00 17,4 C 44 % 1009,4 hPa 0,0 l/m 4,2 km/h N 5,0 C 17,4 C 17,3 km/h
24.03.2015 14:00 17,4 C 42 % 1009,0 hPa 0,0 l/m 6,3 km/h N 4,3 C 17,3 C 19,7 km/h
24.03.2015 15:00 17,0 C 41 % 1008,8 hPa 0,0 l/m 5,6 km/h N 3,7 C 17,0 C 20,1 km/h
24.03.2015 16:00 16,3 C 46 % 1008,9 hPa 0,0 l/m 3,5 km/h N 4,6 C 16,3 C 14,9 km/h
24.03.2015 17:00 14,8 C 54 % 1008,8 hPa 0,0 l/m 0,8 km/h N 5,5 C 14,8 C 6,4 km/h
24.03.2015 18:00 12,8 C 59 % 1008,7 hPa 0,0 l/m 1,0 km/h N 5,0 C 12,8 C 7,2 km/h
24.03.2015 19:00 11,1 C 63 % 1009,1 hPa 0,0 l/m 0,1 km/h N 4,2 C 11,1 C 2,8 km/h
24.03.2015 20:00 9,6 C 66 % 1009,1 hPa 0,0 l/m 0,1 km/h N 3,5 C 9,6 C 1,6 km/h
24.03.2015 21:00 8,2 C 71 % 1009,1 hPa 0,0 l/m 0,2 km/h N 3,1 C 8,2 C 2,8 km/h
24.03.2015 22:00 7,4 C 71 % 1009,4 hPa 0,0 l/m 0,0 km/h N 2,4 C 7,4 C 0,0 km/h
24.03.2015 23:00 5,8 C 77 % 1009,2 hPa 0,0 l/m 0,3 km/h N 2,1 C 5,8 C 2,4 km/h
25.03.2015 00:00 4,3 C 80 % 1008,9 hPa 0,0 l/m 0,1 km/h N 1,1 C 4,3 C 1,2 km/h
25.03.2015 01:00 3,0 C 81 % 1008,8 hPa 0,0 l/m 0,0 km/h N 0,1 C 3,0 C 0,0 km/h
25.03.2015 02:00 2,0 C 83 % 1008,7 hPa 0,0 l/m 0,0 km/h N -0,6 C 2,0 C 0,4 km/h
25.03.2015 03:00 1,3 C 84 % 1008,6 hPa 0,0 l/m 0,0 km/h N -1,1 C 1,3 C 0,8 km/h
25.03.2015 04:00 1,0 C 85 % 1008,3 hPa 0,0 l/m 0,0 km/h N -1,3 C 1,0 C 0,0 km/h
25.03.2015 05:00 0,7 C 85 % 1008,6 hPa 0,0 l/m 0,0 km/h N -1,5 C 0,7 C 0,4 km/h
25.03.2015 06:00 0,8 C 85 % 1008,6 hPa 0,0 l/m 0,0 km/h N -1,5 C 0,8 C 1,2 km/h
25.03.2015 07:00 3,1 C 82 % 1009,1 hPa 0,0 l/m 0,0 km/h N 0,3 C 3,1 C 0,0 km/h
25.03.2015 08:00 6,6 C 83 % 1008,8 hPa 0,0 l/m 0,6 km/h N 3,9 C 6,6 C 4,4 km/h
25.03.2015 09:00 10,0 C 74 % 1008,9 hPa 0,0 l/m 2,2 km/h N 5,5 C 10,0 C 8,0 km/h
25.03.2015 10:00 13,5 C 60 % 1008,4 hPa 0,0 l/m 3,9 km/h N 5,8 C 13,4 C 14,5 km/h
25.03.2015 11:00 14,8 C 55 % 1008,0 hPa 0,0 l/m 7,9 km/h N 5,8 C 13,9 C 22,5 km/h
25.03.2015 12:00 15,5 C 55 % 1007,7 hPa 0,0 l/m 9,4 km/h N 6,5 C 14,0 C 29,8 km/h
25.03.2015 13:00 15,8 C 55 % 1007,5 hPa 0,0 l/m 8,2 km/h N 6,6 C 14,8 C 22,1 km/h
25.03.2015 14:00 15,8 C 55 % 1006,9 hPa 0,0 l/m 6,5 km/h N 6,8 C 15,5 C 20,1 km/h
25.03.2015 15:00 15,6 C 57 % 1006,5 hPa 0,0 l/m 4,6 km/h N 7,0 C 15,6 C 17,7 km/h
25.03.2015 16:00 15,0 C 60 % 1006,2 hPa 0,0 l/m 3,7 km/h N 7,3 C 15,0 C 16,9 km/h
25.03.2015 17:00 14,5 C 62 % 1006,1 hPa 0,0 l/m 3,9 km/h N 7,3 C 14,5 C 17,3 km/h
25.03.2015 18:00 14,0 C 65 % 1006,4 hPa 0,0 l/m 7,0 km/h N 7,6 C 13,5 C 20,1 km/h
25.03.2015 19:00 13,1 C 71 % 1006,4 hPa 0,0 l/m 2,8 km/h N 8,0 C 13,1 C 10,5 km/h
25.03.2015 20:00 12,2 C 76 % 1006,6 hPa 0,0 l/m 3,5 km/h N 8,1 C 12,2 C 14,5 km/h
25.03.2015 21:00 11,3 C 79 % 1006,3 hPa 0,0 l/m 1,8 km/h N 7,8 C 11,3 C 8,9 km/h
25.03.2015 22:00 10,5 C 82 % 1006,1 hPa 0,3 l/m 0,3 km/h N 7,6 C 10,5 C 4,4 km/h
25.03.2015 23:00 10,0 C 84 % 1006,0 hPa 0,0 l/m 1,5 km/h N 7,4 C 10,0 C 7,6 km/h
26.03.2015 00:00 9,8 C 83 % 1005,8 hPa 0,0 l/m 0,1 km/h N 7,1 C 9,8 C 2,8 km/h
26.03.2015 01:00 9,8 C 83 % 1005,4 hPa 0,0 l/m 2,3 km/h N 7,0 C 9,8 C 9,6 km/h
26.03.2015 02:00 9,5 C 84 % 1005,5 hPa 0,0 l/m 2,1 km/h N 6,9 C 9,5 C 9,3 km/h
26.03.2015 03:00 9,1 C 84 % 1005,6 hPa 0,0 l/m 2,9 km/h N 6,6 C 9,1 C 10,4 km/h
26.03.2015 04:00 8,9 C 84 % 1005,8 hPa 0,0 l/m 2,2 km/h N 6,3 C 8,9 C 10,0 km/h
26.03.2015 05:00 8,6 C 84 % 1006,0 hPa 0,0 l/m 2,6 km/h N 6,1 C 8,6 C 10,5 km/h
26.03.2015 06:00 8,5 C 84 % 1006,4 hPa 0,0 l/m 2,1 km/h N 6,0 C 8,5 C 8,1 km/h
26.03.2015 07:00 9,0 C 84 % 1006,6 hPa 0,0 l/m 1,4 km/h N 6,5 C 9,0 C 8,1 km/h
26.03.2015 08:00 10,3 C 84 % 1007,1 hPa 0,0 l/m 2,0 km/h N 7,7 C 10,3 C 9,3 km/h
26.03.2015 09:00 10,5 C 84 % 1007,5 hPa 0,3 l/m 2,3 km/h N 7,8 C 10,5 C 9,2 km/h
26.03.2015 10:00 10,7 C 84 % 1007,8 hPa 0,0 l/m 2,4 km/h N 8,1 C 10,7 C 8,9 km/h
26.03.2015 11:00 11,6 C 84 % 1007,7 hPa 0,3 l/m 0,6 km/h N 8,9 C 11,6 C 5,6 km/h
26.03.2015 12:00 13,3 C 82 % 1007,5 hPa 0,0 l/m 1,0 km/h N 10,2 C 13,3 C 7,2 km/h
26.03.2015 13:00 14,3 C 78 % 1007,1 hPa 0,0 l/m 0,5 km/h N 10,5 C 14,3 C 5,2 km/h
26.03.2015 14:00 14,7 C 78 % 1006,7 hPa 0,0 l/m 1,1 km/h N 10,8 C 14,7 C 6,0 km/h
26.03.2015 15:00 15,4 C 75 % 1006,1 hPa 0,0 l/m 1,4 km/h N 11,0 C 15,4 C 6,8 km/h
26.03.2015 16:00 15,3 C 75 % 1005,8 hPa 0,0 l/m 0,7 km/h N 10,8 C 15,3 C 5,2 km/h
26.03.2015 17:00 15,3 C 75 % 1005,7 hPa 0,0 l/m 0,8 km/h N 10,9 C 15,3 C 4,8 km/h
26.03.2015 18:00 14,1 C 75 % 1006,0 hPa 0,0 l/m 2,8 km/h N 9,7 C 14,1 C 9,7 km/h
26.03.2015 19:00 12,5 C 74 % 1006,5 hPa 0,3 l/m 0,3 km/h N 8,0 C 12,5 C 3,2 km/h
26.03.2015 20:00 10,8 C 79 % 1007,0 hPa 0,0 l/m 0,6 km/h N 7,3 C 10,8 C 4,4 km/h
26.03.2015 21:00 10,9 C 77 % 1007,3 hPa 0,0 l/m 3,0 km/h N 7,0 C 10,9 C 9,7 km/h
26.03.2015 22:00 10,6 C 77 % 1007,7 hPa 0,0 l/m 3,3 km/h N 6,6 C 10,6 C 9,7 km/h
26.03.2015 23:00 10,1 C 77 % 1007,8 hPa 0,0 l/m 4,0 km/h N 6,3 C 10,1 C 12,9 km/h
27.03.2015 00:00 9,6 C 77 % 1007,8 hPa 0,0 l/m 7,8 km/h N 5,7 C 8,6 C 24,1 km/h
27.03.2015 01:00 9,2 C 74 % 1007,8 hPa 0,0 l/m 6,0 km/h N 4,7 C 9,1 C 19,3 km/h
27.03.2015 02:00 8,8 C 74 % 1008,2 hPa 0,0 l/m 7,7 km/h N 4,4 C 7,8 C 28,6 km/h
27.03.2015 03:00 7,6 C 79 % 1008,7 hPa 0,8 l/m 7,8 km/h N 4,2 C 6,5 C 27,0 km/h
27.03.2015 04:00 7,0 C 81 % 1009,2 hPa 0,5 l/m 7,1 km/h N 4,0 C 6,4 C 25,7 km/h
27.03.2015 05:00 6,8 C 82 % 1009,8 hPa 1,3 l/m 6,8 km/h N 3,9 C 6,4 C 24,9 km/h
27.03.2015 06:00 6,7 C 82 % 1010,6 hPa 0,0 l/m 6,8 km/h N 3,9 C 6,1 C 20,9 km/h
27.03.2015 07:00 6,6 C 83 % 1011,4 hPa 0,0 l/m 9,8 km/h N 3,8 C 4,0 C 22,9 km/h
27.03.2015 08:00 6,3 C 83 % 1012,2 hPa 0,3 l/m 9,2 km/h N 3,6 C 4,0 C 29,0 km/h
27.03.2015 09:00 6,7 C 82 % 1012,8 hPa 0,0 l/m 9,2 km/h N 3,8 C 4,5 C 24,9 km/h
27.03.2015 10:00 7,4 C 80 % 1012,9 hPa 0,0 l/m 12,1 km/h N 4,2 C 3,5 C 25,3 km/h
27.03.2015 11:00 7,9 C 78 % 1013,0 hPa 0,0 l/m 14,9 km/h N 4,2 C 2,7 C 30,6 km/h
27.03.2015 13:00 9,2 C 74 % 1013,8 hPa 0,0 l/m 11,3 km/h N 4,7 C 6,0 C 11,3 km/h
27.03.2015 15:00 9,0 C 71 % 1013,9 hPa 0,0 l/m 16,6 km/h N 4,1 C 3,3 C 34,3 km/h
27.03.2015 16:00 9,4 C 72 % 1014,0 hPa 0,0 l/m 14,8 km/h N 4,6 C 4,6 C 32,6 km/h
27.03.2015 17:00 9,4 C 70 % 1014,8 hPa 0,0 l/m 14,1 km/h N 4,2 C 4,8 C 30,6 km/h
27.03.2015 18:00 8,7 C 71 % 1015,5 hPa 0,0 l/m 13,3 km/h N 3,6 C 4,4 C 30,6 km/h
27.03.2015 19:00 8,8 C 62 % 1016,5 hPa 0,0 l/m 14,0 km/h N 1,9 C 4,1 C 33,0 km/h
27.03.2015 20:00 8,7 C 63 % 1017,3 hPa 0,0 l/m 15,2 km/h N 2,0 C 3,5 C 30,6 km/h
27.03.2015 21:00 8,3 C 68 % 1017,8 hPa 0,0 l/m 14,9 km/h N 2,6 C 3,1 C 32,6 km/h
27.03.2015 22:00 8,2 C 66 % 1017,8 hPa 0,0 l/m 16,1 km/h N 2,3 C 2,4 C 30,2 km/h
27.03.2015 23:00 8,0 C 67 % 1018,2 hPa 0,0 l/m 15,9 km/h N 2,1 C 2,3 C 33,0 km/h
28.03.2015 00:00 7,4 C 70 % 1018,5 hPa 0,0 l/m 12,8 km/h N 2,2 C 3,1 C 29,0 km/h
28.03.2015 01:00 6,8 C 72 % 1018,7 hPa 0,0 l/m 11,0 km/h N 2,1 C 3,7 C 26,6 km/h
28.03.2015 02:00 6,7 C 71 % 1018,8 hPa 0,0 l/m 9,2 km/h N 1,7 C 4,5 C 22,1 km/h
28.03.2015 03:00 7,1 C 68 % 1018,8 hPa 0,0 l/m 12,0 km/h N 1,7 C 3,2 C 26,1 km/h
28.03.2015 04:00 6,9 C 69 % 1019,0 hPa 0,0 l/m 8,8 km/h N 1,6 C 5,0 C 22,1 km/h
28.03.2015 05:00 7,0 C 68 % 1019,1 hPa 0,0 l/m 11,5 km/h N 1,5 C 3,4 C 26,5 km/h
28.03.2015 06:00 7,2 C 66 % 1019,3 hPa 0,0 l/m 12,0 km/h N 1,3 C 3,4 C 28,6 km/h
28.03.2015 07:00 7,4 C 66 % 1019,5 hPa 0,0 l/m 12,2 km/h N 1,4 C 3,5 C 27,4 km/h
28.03.2015 08:00 7,9 C 65 % 1019,6 hPa 0,0 l/m 13,5 km/h N 1,6 C 3,3 C 30,6 km/h
28.03.2015 09:00 8,5 C 63 % 1019,4 hPa 0,0 l/m 17,8 km/h N 1,8 C 2,2 C 35,4 km/h
28.03.2015 10:00 9,0 C 59 % 1019,4 hPa 0,0 l/m 18,7 km/h N 1,5 C 2,5 C 35,8 km/h
28.03.2015 11:00 9,2 C 57 % 1019,1 hPa 0,0 l/m 17,1 km/h N 1,2 C 3,3 C 35,0 km/h
28.03.2015 12:00 9,9 C 53 % 1018,6 hPa 0,0 l/m 17,1 km/h N 0,8 C 4,2 C 34,2 km/h
28.03.2015 13:00 10,2 C 50 % 1018,2 hPa 0,0 l/m 16,7 km/h N 0,3 C 4,7 C 33,4 km/h
28.03.2015 14:00 9,4 C 52 % 1017,8 hPa 0,0 l/m 14,9 km/h N 0,0 C 4,5 C 35,0 km/h
28.03.2015 15:00 9,6 C 52 % 1017,5 hPa 0,0 l/m 11,7 km/h N 0,2 C 6,2 C 24,9 km/h
28.03.2015 16:00 9,6 C 49 % 1017,2 hPa 0,0 l/m 12,0 km/h N -0,5 C 6,2 C 25,3 km/h
28.03.2015 17:00 9,2 C 49 % 1017,1 hPa 0,0 l/m 8,6 km/h N -0,9 C 7,7 C 20,1 km/h
28.03.2015 18:00 8,0 C 54 % 1017,3 hPa 0,0 l/m 2,0 km/h N -0,8 C 8,0 C 8,9 km/h
28.03.2015 19:00 6,3 C 58 % 1017,4 hPa 0,0 l/m 0,0 km/h N -1,4 C 6,3 C 0,4 km/h
28.03.2015 20:00 3,8 C 67 % 1017,4 hPa 0,0 l/m 0,0 km/h N -1,8 C 3,8 C 0,4 km/h
28.03.2015 21:00 2,4 C 73 % 1017,2 hPa 0,0 l/m 0,0 km/h N -2,0 C 2,4 C 0,0 km/h
28.03.2015 22:00 1,8 C 77 % 1016,6 hPa 0,0 l/m 0,0 km/h N -1,7 C 1,8 C 0,0 km/h
28.03.2015 23:00 1,7 C 79 % 1016,2 hPa 0,0 l/m 0,5 km/h N -1,7 C 1,7 C 2,4 km/h
29.03.2015 00:00 2,6 C 75 % 1015,7 hPa 0,0 l/m 0,9 km/h N -1,4 C 2,6 C 5,6 km/h
29.03.2015 01:00 2,3 C 73 % 1015,2 hPa 0,0 l/m 0,8 km/h N -2,0 C 2,3 C 2,8 km/h
29.03.2015 03:00 1,2 C 78 % 1014,8 hPa 0,0 l/m 0,2 km/h N -2,3 C 1,2 C 2,8 km/h
29.03.2015 04:00 1,8 C 78 % 1014,1 hPa 0,0 l/m 0,2 km/h N -1,7 C 1,8 C 1,6 km/h
29.03.2015 05:00 2,2 C 78 % 1013,9 hPa 0,0 l/m 0,0 km/h N -1,3 C 2,2 C 1,2 km/h
29.03.2015 06:00 2,6 C 80 % 1013,3 hPa 0,0 l/m 0,1 km/h N -0,6 C 2,6 C 0,8 km/h
29.03.2015 07:00 2,8 C 81 % 1013,3 hPa 0,3 l/m 0,0 km/h N -0,1 C 2,8 C 0,0 km/h
29.03.2015 08:00 3,2 C 83 % 1013,1 hPa 0,0 l/m 0,0 km/h N 0,7 C 3,2 C 0,0 km/h
29.03.2015 09:00 5,0 C 84 % 1012,5 hPa 0,3 l/m 0,3 km/h N 2,6 C 5,0 C 4,0 km/h
29.03.2015 10:00 7,5 C 84 % 1011,4 hPa 0,0 l/m 0,8 km/h N 4,9 C 7,5 C 5,2 km/h
29.03.2015 11:00 8,9 C 84 % 1010,3 hPa 0,0 l/m 1,3 km/h N 6,2 C 8,9 C 6,0 km/h
29.03.2015 12:00 11,5 C 77 % 1009,2 hPa 0,0 l/m 4,6 km/h N 7,6 C 11,3 C 17,7 km/h
29.03.2015 13:00 13,7 C 67 % 1008,2 hPa 0,0 l/m 12,6 km/h N 7,5 C 10,5 C 31,8 km/h
29.03.2015 14:00 14,0 C 66 % 1007,5 hPa 0,0 l/m 11,3 km/h N 7,7 C 11,4 C 31,8 km/h
29.03.2015 15:00 13,9 C 66 % 1006,7 hPa 0,0 l/m 7,4 km/h N 7,6 C 12,5 C 19,7 km/h
29.03.2015 16:00 14,3 C 65 % 1006,0 hPa 0,0 l/m 0,8 km/h N 7,7 C 14,3 C 7,2 km/h
29.03.2015 17:00 14,4 C 64 % 1005,1 hPa 0,0 l/m 0,7 km/h N 7,7 C 14,4 C 5,6 km/h
29.03.2015 18:00 14,1 C 65 % 1005,0 hPa 0,0 l/m 2,5 km/h N 7,5 C 14,1 C 11,3 km/h
29.03.2015 19:00 12,9 C 71 % 1005,2 hPa 0,3 l/m 1,9 km/h N 7,8 C 12,9 C 8,4 km/h
29.03.2015 20:00 12,3 C 73 % 1005,4 hPa 0,0 l/m 6,3 km/h N 7,5 C 11,6 C 20,1 km/h
29.03.2015 21:00 11,8 C 73 % 1004,7 hPa 0,0 l/m 6,7 km/h N 7,0 C 11,2 C 20,9 km/h
29.03.2015 22:00 11,7 C 71 % 1003,3 hPa 0,0 l/m 5,3 km/h N 6,7 C 11,5 C 22,1 km/h
29.03.2015 23:00 12,2 C 68 % 1001,9 hPa 0,0 l/m 2,4 km/h N 6,5 C 12,2 C 8,0 km/h
Min-Datum _ 23.03.15 24.03.15 29.03.15 - 23.03.15 - 23.03.15 23.03.15 23.03.15
_ Min-Zeit 06:15 14:15 23:45 - 01:45 - 05:45 06:15 04:15
Minimum _ -2,9 C 40 % 1001,6 hPa - 0,0 km/h - -5,7 C -2,9 C 0,0 km/h
Max-Datum _ 24.03.15 25.03.15 23.03.15 27.03.15 28.03.15 - 26.03.15 24.03.15 28.03.15
_ Max-Zeit 14:00 04:15 00:00 05:15 09:45 - 15:00 13:45 11:15
Maximum _ 17,9 C 85 % 1023,0 hPa 1,3 l/m 20,7 km/h
N
- 11,3 C 17,8 C 43,5 km/h
N
Durchschnitt _ 8,5 C 70 % 1012,0 hPa #4,7 l/m 4,5 km/h N 3,2 C 7,5 C 12,9 km/h